CST,Max TemperatureF,Mean TemperatureF,Min TemperatureF,Max Dew PointF,MeanDew PointF,Min DewpointF,Max Humidity, Mean Humidity, Min Humidity, Max Sea Level PressureIn, Mean Sea Level PressureIn, Min Sea Level PressureIn, Max VisibilityMiles, Mean VisibilityMiles, Min VisibilityMiles, Max Wind SpeedMPH, Mean Wind SpeedMPH, Max Gust SpeedMPH,PrecipitationIn, CloudCover, Events, WindDirDegrees
2013-12-1,46,33,19,26,23,18,96,71,45,30.19,30.06,29.83,10,10,6,13,4,14,0.00,3,,155
2013-12-2,60,45,29,32,30,26,85,60,35,29.81,29.60,29.51,10,10,7,14,5,18,0.00,1,,207
2013-12-3,36,30,24,31,27,19,92,85,78,29.77,29.65,29.53,10,7,1,23,13,28,0.00,7,,349
2013-12-4,24,17,10,19,10,1,84,73,61,30.13,29.82,29.67,10,8,2,31,23,39,T,8,Rain-Snow,317
2013-12-5,13,8,2,-1,-6,-9,69,58,46,30.51,30.36,30.09,10,10,10,28,15,37,0.00,1,,308
2013-12-6,8,1,-6,-8,-10,-12,78,67,55,30.79,30.66,30.51,10,10,10,20,10,24,0.00,0,,316
2013-12-7,9,0,-9,1,-8,-14,80,68,55,30.82,30.68,30.44,10,9,4,15,6,18,T,3,Snow,144
2013-12-8,15,9,3,7,4,-3,87,80,73,30.38,30.17,30.08,10,4,1,20,7,24,0.12,7,Snow,114
2013-12-9,18,6,-6,7,-3,-12,76,66,55,30.37,30.23,30.05,10,10,10,31,13,39,0.00,0,,251
2013-12-10,29,20,10,23,14,2,74,64,53,30.36,30.17,30.06,10,9,2,30,13,39,0.01,5,Snow,267
2013-12-11,20,9,-3,13,0,-10,79,66,53,30.69,30.54,30.31,10,10,4,25,11,31,T,2,Snow,280
2013-12-12,41,23,4,24,14,2,92,70,48,30.43,30.27,30.07,10,10,10,15,5,18,0.00,0,,200
2013-12-13,32,24,15,22,17,12,92,81,69,30.21,30.04,29.94,10,8,5,21,10,25,0.00,4,,24
2013-12-14,23,18,12,15,11,8,88,78,67,30.30,30.22,30.14,10,10,4,20,9,22,T,5,Snow,335
2013-12-15,28,22,15,19,15,12,92,80,68,30.14,30.05,29.98,10,9,6,12,6,14,0.00,4,,119
2013-12-16,48,30,11,29,22,8,92,71,49,30.17,30.08,30.00,10,9,6,26,7,31,0.00,2,,300
2013-12-17,41,33,24,25,18,10,88,58,28,30.32,30.21,30.01,10,10,10,20,11,26,0.00,0,,265
2013-12-18,56,42,27,25,23,21,72,51,30,29.98,29.79,29.69,10,10,2,22,5,29,0.00,0,,240
2013-12-19,36,24,11,27,14,5,84,76,67,30.04,29.90,29.78,10,9,5,23,15,29,T,5,Snow,9
2013-12-20,17,13,8,8,5,3,80,71,61,30.08,30.00,29.91,10,9,5,22,10,27,T,8,Snow,325
2013-12-21,27,18,8,14,10,5,84,70,55,29.99,29.89,29.82,10,10,10,20,7,25,0.00,2,,48
2013-12-22,18,10,2,9,3,-5,84,69,54,30.50,30.21,29.97,10,10,7,22,14,26,0.00,3,,324
2013-12-23,10,3,-4,-5,-10,-14,79,59,38,30.67,30.60,30.43,10,10,10,22,10,26,0.00,3,,331
2013-12-24,29,16,2,23,11,-11,84,67,49,30.50,30.22,30.03,10,7,2,25,15,34,T,7,Snow,178
2013-12-25,40,27,13,25,18,12,88,71,54,30.34,30.27,30.19,10,10,8,26,11,34,0.00,2,,272
2013-12-26,51,36,20,22,19,15,81,54,26,30.27,30.17,30.11,10,10,10,20,8,24,0.00,0,,267
2013-12-27,62,40,17,26,22,16,91,58,24,30.26,30.14,30.03,10,10,10,21,6,24,0.00,0,,234
2013-12-28,62,36,10,31,19,2,81,51,20,30.25,29.94,29.71,10,9,2,43,17,54,T,3,Snow,290
2013-12-29,12,6,-1,1,-10,-15,73,52,31,30.51,30.39,30.23,10,10,10,37,15,47,T,1,,340
2013-12-30,39,23,7,28,8,-10,80,61,41,30.33,30.15,29.97,10,8,1,28,12,38,0.01,6,Snow,233
2013-12-31,26,17,8,13,7,2,84,72,60,30.27,30.18,30.06,10,10,10,21,9,25,0.00,4,,83